Time;durP1;ratioP1;P1;durP2;ratioP2;P2;SDS_P1;SDS_P2;PMS_P1;PMS_P2;Temp;Humidity;BMP_temperature;BMP_pressure;BME280_temperature;BME280_humidity;BME280_pressure;Samples;Min_cycle;Max_cycle;Signal;HPM_P1;HPM_P2
2023/06/17 00:00:30;;;;;;;751.90;692.20;;;;;;;;;;4981641;28;20257;-60
2023/06/17 00:02:56;;;;;;;739.70;680.13;;;;;;;;;;4971142;28;20477;-60
2023/06/17 00:05:21;;;;;;;742.60;682.93;;;;;;;;;;4981139;28;20536;-60
2023/06/17 00:07:47;;;;;;;736.97;677.60;;;;;;;;;;4980600;28;20038;-61
2023/06/17 00:10:12;;;;;;;733.13;673.60;;;;;;;;;;4981156;28;20100;-60
2023/06/17 00:12:38;;;;;;;739.43;679.77;;;;;;;;;;4981216;28;20042;-60
2023/06/17 00:15:05;;;;;;;745.53;685.67;;;;;;;;;;4980226;28;20046;-60
2023/06/17 00:17:31;;;;;;;740.63;681.03;;;;;;;;;;4981057;28;20593;-60
2023/06/17 00:19:57;;;;;;;736.40;676.90;;;;;;;;;;4981531;28;20290;-60
2023/06/17 00:22:24;;;;;;;726.70;667.77;;;;;;;;;;4981343;28;20333;-60
2023/06/17 00:24:50;;;;;;;729.00;669.60;;;;;;;;;;4981262;28;20065;-61
2023/06/17 00:27:16;;;;;;;730.37;671.27;;;;;;;;;;4981308;28;20717;-61
2023/06/17 00:29:41;;;;;;;725.70;666.67;;;;;;;;;;4980022;28;20529;-60
2023/06/17 00:32:07;;;;;;;729.37;669.87;;;;;;;;;;4981876;28;20588;-59
2023/06/17 00:34:32;;;;;;;730.50;671.17;;;;;;;;;;4976573;28;20031;-59
2023/06/17 00:36:58;;;;;;;705.67;646.80;;;;;;;;;;4981602;28;20038;-60
2023/06/17 00:39:23;;;;;;;725.07;665.77;;;;;;;;;;4980926;28;20030;-60
2023/06/17 00:41:49;;;;;;;721.63;662.57;;;;;;;;;;4980546;28;20038;-59
2023/06/17 00:44:14;;;;;;;732.27;672.73;;;;;;;;;;4978226;28;20374;-61
2023/06/17 00:46:41;;;;;;;733.50;673.83;;;;;;;;;;4987497;28;20065;-60
2023/06/17 00:49:07;;;;;;;724.63;665.57;;;;;;;;;;4980263;28;20080;-61
2023/06/17 00:51:33;;;;;;;727.33;668.30;;;;;;;;;;4971633;28;20305;-60
2023/06/17 00:53:59;;;;;;;716.53;657.80;;;;;;;;;;4980144;28;20339;-60
2023/06/17 00:56:33;;;;;;;725.60;666.47;;;;;;;;;;4954293;28;20569;-60
2023/06/17 00:58:59;;;;;;;726.63;667.27;;;;;;;;;;4982728;28;20370;-60
2023/06/17 01:01:25;;;;;;;725.20;666.20;;;;;;;;;;5013484;28;20303;-60
2023/06/17 01:03:52;;;;;;;718.93;659.93;;;;;;;;;;4981884;28;20301;-60
2023/06/17 01:06:37;;;;;;;714.63;655.80;;;;;;;;;;4981518;28;20329;-61
2023/06/17 01:09:09;;;;;;;713.23;654.10;;;;;;;;;;4981551;28;20360;-60
2023/06/17 01:11:37;;;;;;;719.60;660.60;;;;;;;;;;4980736;28;20293;-61
2023/06/17 01:14:03;;;;;;;718.03;659.17;;;;;;;;;;4980624;28;20321;-60
2023/06/17 01:16:31;;;;;;;711.83;652.87;;;;;;;;;;4969665;28;20800;-61
2023/06/17 01:18:57;;;;;;;714.47;655.37;;;;;;;;;;4987213;28;20037;-60
2023/06/17 01:21:22;;;;;;;709.87;651.03;;;;;;;;;;4978601;28;20297;-60
2023/06/17 01:23:52;;;;;;;705.50;646.80;;;;;;;;;;4980575;28;20077;-60
2023/06/17 01:26:21;;;;;;;708.00;649.17;;;;;;;;;;4994900;28;20034;-60
2023/06/17 01:28:49;;;;;;;706.53;647.93;;;;;;;;;;4980608;28;20262;-60
2023/06/17 01:31:18;;;;;;;721.63;662.57;;;;;;;;;;5011289;28;20356;-60
2023/06/17 01:33:46;;;;;;;726.10;666.60;;;;;;;;;;4970721;28;20279;-60
2023/06/17 01:36:17;;;;;;;708.63;649.70;;;;;;;;;;4979164;28;20300;-60
2023/06/17 01:38:50;;;;;;;708.10;649.13;;;;;;;;;;4980813;28;20407;-60
2023/06/17 01:41:35;;;;;;;715.60;656.53;;;;;;;;;;4978424;28;20305;-60
2023/06/17 01:44:03;;;;;;;711.10;652.08;;;;;;;;;;5011148;28;20297;-60
2023/06/17 01:46:29;;;;;;;708.97;649.93;;;;;;;;;;4977998;28;20508;-60
2023/06/17 01:48:55;;;;;;;712.23;653.47;;;;;;;;;;4980569;28;20265;-60
2023/06/17 01:51:21;;;;;;;710.23;651.07;;;;;;;;;;4969291;28;20321;-60
2023/06/17 01:53:47;;;;;;;704.50;645.83;;;;;;;;;;5011971;28;20381;-60
2023/06/17 01:56:12;;;;;;;715.83;656.57;;;;;;;;;;4970978;28;20042;-59
2023/06/17 01:58:38;;;;;;;702.57;643.83;;;;;;;;;;5009737;28;20034;-60
2023/06/17 02:01:06;;;;;;;715.80;656.80;;;;;;;;;;4979791;28;20042;-64
2023/06/17 02:03:32;;;;;;;721.77;662.60;;;;;;;;;;4979676;28;20034;-60
2023/06/17 02:05:58;;;;;;;726.80;667.67;;;;;;;;;;4979477;28;20293;-59
2023/06/17 02:08:23;;;;;;;720.27;661.10;;;;;;;;;;4978998;28;20289;-60
2023/06/17 02:10:50;;;;;;;722.10;663.00;;;;;;;;;;5010565;28;20100;-60
2023/06/17 02:13:15;;;;;;;729.83;670.50;;;;;;;;;;4969216;28;20278;-60
2023/06/17 02:15:42;;;;;;;717.87;658.77;;;;;;;;;;4969524;28;20031;-61
2023/06/17 02:18:12;;;;;;;727.53;668.23;;;;;;;;;;4969562;28;20466;-59
2023/06/17 02:20:38;;;;;;;722.63;663.50;;;;;;;;;;4980339;28;20289;-59
2023/06/17 02:23:04;;;;;;;718.63;659.63;;;;;;;;;;4978220;28;20668;-60
2023/06/17 02:25:29;;;;;;;711.07;651.97;;;;;;;;;;4980313;28;20720;-60
2023/06/17 02:27:55;;;;;;;712.00;653.30;;;;;;;;;;4983686;28;20543;-60
2023/06/17 02:30:21;;;;;;;704.07;645.23;;;;;;;;;;4972134;28;20659;-59
2023/06/17 02:32:46;;;;;;;705.87;646.87;;;;;;;;;;4983280;28;20277;-60
2023/06/17 02:35:12;;;;;;;703.80;645.10;;;;;;;;;;4982986;28;20042;-59
2023/06/17 02:37:38;;;;;;;694.43;635.83;;;;;;;;;;4973224;28;20410;-59
2023/06/17 02:40:08;;;;;;;706.33;647.33;;;;;;;;;;4982214;28;20046;-60
2023/06/17 02:42:37;;;;;;;695.10;636.53;;;;;;;;;;5014261;28;20045;-60
2023/06/17 02:45:03;;;;;;;701.17;642.27;;;;;;;;;;5013342;28;20794;-59
2023/06/17 02:47:29;;;;;;;692.97;634.37;;;;;;;;;;4982271;28;20289;-60
2023/06/17 02:49:54;;;;;;;694.90;636.40;;;;;;;;;;4973162;28;20073;-59
2023/06/17 02:52:21;;;;;;;704.00;645.30;;;;;;;;;;4987095;28;21716;-60
2023/06/17 02:54:47;;;;;;;696.10;637.53;;;;;;;;;;4980839;28;20615;-60
2023/06/17 02:57:17;;;;;;;692.17;633.57;;;;;;;;;;5013900;28;20297;-60
2023/06/17 02:59:43;;;;;;;706.50;647.60;;;;;;;;;;4982817;28;20281;-60
2023/06/17 03:02:08;;;;;;;712.43;653.43;;;;;;;;;;5013600;28;20492;-60
2023/06/17 03:04:37;;;;;;;702.37;643.83;;;;;;;;;;4981712;28;20026;-60
2023/06/17 03:07:04;;;;;;;716.83;657.70;;;;;;;;;;4972222;28;20493;-59
2023/06/17 03:09:30;;;;;;;716.47;657.30;;;;;;;;;;4972508;28;20293;-60
2023/06/17 03:11:56;;;;;;;717.17;658.20;;;;;;;;;;4973265;28;20649;-59
2023/06/17 03:14:21;;;;;;;713.43;654.27;;;;;;;;;;4983610;28;20088;-58
2023/06/17 03:16:50;;;;;;;724.33;664.77;;;;;;;;;;4971620;28;20408;-59
2023/06/17 03:19:17;;;;;;;713.23;654.43;;;;;;;;;;5014376;28;20859;-59
2023/06/17 03:21:45;;;;;;;722.23;663.07;;;;;;;;;;4971815;28;20308;-59
2023/06/17 03:24:11;;;;;;;711.50;652.57;;;;;;;;;;4972301;28;20305;-59
2023/06/17 03:26:37;;;;;;;716.53;657.80;;;;;;;;;;4983044;28;20285;-60
2023/06/17 03:29:03;;;;;;;728.37;669.33;;;;;;;;;;5013474;28;20446;-59
2023/06/17 03:31:30;;;;;;;724.77;665.67;;;;;;;;;;4981916;28;20065;-60
2023/06/17 03:33:56;;;;;;;730.13;670.90;;;;;;;;;;5013013;28;20815;-60
2023/06/17 03:36:25;;;;;;;735.63;676.03;;;;;;;;;;4981728;28;20030;-60
2023/06/17 03:38:52;;;;;;;733.23;673.67;;;;;;;;;;4970634;28;20501;-60
2023/06/17 03:41:17;;;;;;;729.70;670.63;;;;;;;;;;5013897;28;20372;-60
2023/06/17 03:43:43;;;;;;;732.43;673.00;;;;;;;;;;5012224;28;20519;-60
2023/06/17 03:46:09;;;;;;;746.37;686.60;;;;;;;;;;4982337;28;20077;-59
2023/06/17 03:48:35;;;;;;;731.17;671.60;;;;;;;;;;4981924;28;20505;-60
2023/06/17 03:51:02;;;;;;;734.63;675.43;;;;;;;;;;4981509;28;20343;-62
2023/06/17 03:53:29;;;;;;;743.33;683.73;;;;;;;;;;4988389;28;20289;-61
2023/06/17 03:55:55;;;;;;;735.20;675.93;;;;;;;;;;4988152;28;20855;-61
2023/06/17 03:58:21;;;;;;;746.87;687.20;;;;;;;;;;5013128;28;20293;-60
2023/06/17 04:00:47;;;;;;;747.37;687.70;;;;;;;;;;4981555;28;20042;-59
2023/06/17 04:03:13;;;;;;;745.43;685.47;;;;;;;;;;4980053;28;20528;-59
2023/06/17 04:05:41;;;;;;;744.50;684.50;;;;;;;;;;4971317;28;20879;-59
2023/06/17 04:08:07;;;;;;;746.70;686.87;;;;;;;;;;4979049;28;20312;-60
2023/06/17 04:10:32;;;;;;;744.70;684.90;;;;;;;;;;5012706;28;20475;-59
2023/06/17 04:12:58;;;;;;;762.77;702.47;;;;;;;;;;4980790;28;20312;-58
2023/06/17 04:15:25;;;;;;;761.40;701.03;;;;;;;;;;4980354;28;20018;-61
2023/06/17 04:17:51;;;;;;;769.03;708.43;;;;;;;;;;4980461;28;20285;-60
2023/06/17 04:20:16;;;;;;;774.03;713.60;;;;;;;;;;4980176;28;20038;-59
2023/06/17 04:22:43;;;;;;;784.80;723.73;;;;;;;;;;4980791;28;20352;-60
2023/06/17 04:25:10;;;;;;;799.57;737.87;;;;;;;;;;4982192;28;20291;-60
2023/06/17 04:27:38;;;;;;;801.00;739.77;;;;;;;;;;5013791;28;20822;-59
2023/06/17 04:30:10;;;;;;;794.83;734.03;;;;;;;;;;4980553;28;20305;-59
2023/06/17 04:32:38;;;;;;;800.30;739.40;;;;;;;;;;4979985;28;20336;-57
2023/06/17 04:35:08;;;;;;;804.10;743.03;;;;;;;;;;5012627;28;20368;-59
2023/06/17 04:37:37;;;;;;;808.77;747.60;;;;;;;;;;5012379;28;20289;-58
2023/06/17 04:40:06;;;;;;;818.93;757.23;;;;;;;;;;4970315;28;20760;-59
2023/06/17 04:42:36;;;;;;;815.17;753.43;;;;;;;;;;5012654;28;20132;-59
2023/06/17 04:45:03;;;;;;;816.53;755.10;;;;;;;;;;4978375;28;20311;-59
2023/06/17 04:47:29;;;;;;;804.73;743.67;;;;;;;;;;5011954;28;20297;-60
2023/06/17 04:49:55;;;;;;;821.97;760.30;;;;;;;;;;4979631;28;20309;-59
2023/06/17 04:52:24;;;;;;;817.13;755.67;;;;;;;;;;4970843;28;20038;-61
2023/06/17 04:54:51;;;;;;;816.50;755.03;;;;;;;;;;4969759;28;20045;-59
2023/06/17 04:57:17;;;;;;;820.93;759.33;;;;;;;;;;5012596;28;20297;-59
2023/06/17 04:59:44;;;;;;;817.67;755.87;;;;;;;;;;4995160;28;20040;-59
2023/06/17 05:02:10;;;;;;;813.57;752.20;;;;;;;;;;5011604;28;20738;-59
2023/06/17 05:04:36;;;;;;;830.10;767.93;;;;;;;;;;4970400;28;20061;-59
2023/06/17 05:07:02;;;;;;;829.07;767.07;;;;;;;;;;4978556;28;21140;-59
2023/06/17 05:09:27;;;;;;;837.47;775.40;;;;;;;;;;4970603;28;20126;-59
2023/06/17 05:11:53;;;;;;;816.23;755.07;;;;;;;;;;4969454;28;20528;-60
2023/06/17 05:14:19;;;;;;;835.80;773.67;;;;;;;;;;4970357;28;20133;-59
2023/06/17 05:16:45;;;;;;;834.53;772.70;;;;;;;;;;5010186;28;20037;-60
2023/06/17 05:19:10;;;;;;;839.97;777.40;;;;;;;;;;4994493;28;20157;-59
2023/06/17 05:21:36;;;;;;;843.63;781.50;;;;;;;;;;4980480;28;20441;-60
2023/06/17 05:24:05;;;;;;;846.57;784.33;;;;;;;;;;4987137;28;20039;-62
2023/06/17 05:26:33;;;;;;;828.70;766.80;;;;;;;;;;4979359;28;20031;-62
2023/06/17 05:29:00;;;;;;;838.87;776.83;;;;;;;;;;5012308;28;20868;-61
2023/06/17 05:31:29;;;;;;;839.17;777.03;;;;;;;;;;4969235;28;20332;-59
2023/06/17 05:33:55;;;;;;;820.10;758.60;;;;;;;;;;4981506;28;20844;-61
2023/06/17 05:36:21;;;;;;;832.90;771.10;;;;;;;;;;4980846;28;20297;-63
2023/06/17 05:38:47;;;;;;;831.47;769.40;;;;;;;;;;4980744;28;20320;-61
2023/06/17 05:41:13;;;;;;;826.93;765.33;;;;;;;;;;4970604;28;20384;-59
2023/06/17 05:43:40;;;;;;;822.77;761.20;;;;;;;;;;4969746;28;20370;-61
2023/06/17 05:46:05;;;;;;;835.03;773.03;;;;;;;;;;4980175;28;20277;-61
2023/06/17 05:48:31;;;;;;;830.23;768.37;;;;;;;;;;4979495;28;20601;-60
2023/06/17 05:50:57;;;;;;;832.33;770.33;;;;;;;;;;4970243;28;20332;-60
2023/06/17 05:53:23;;;;;;;846.37;783.80;;;;;;;;;;4979680;28;20030;-60
2023/06/17 05:55:49;;;;;;;844.60;782.30;;;;;;;;;;4968622;28;20126;-60
2023/06/17 05:58:15;;;;;;;852.03;789.57;;;;;;;;;;4979145;28;20327;-60
2023/06/17 06:00:49;;;;;;;865.30;802.57;;;;;;;;;;4970047;28;20611;-60
2023/06/17 06:03:14;;;;;;;864.67;801.77;;;;;;;;;;4973614;28;20290;-59
2023/06/17 06:05:40;;;;;;;863.77;800.97;;;;;;;;;;4981430;28;20041;-59
2023/06/17 06:08:06;;;;;;;872.07;809.00;;;;;;;;;;4984020;28;20282;-63
2023/06/17 06:10:34;;;;;;;878.70;815.53;;;;;;;;;;4983274;28;20396;-62
2023/06/17 06:13:00;;;;;;;878.97;815.90;;;;;;;;;;4974819;28;20019;-61
2023/06/17 06:15:27;;;;;;;888.10;824.47;;;;;;;;;;4983204;28;20367;-62
2023/06/17 06:17:53;;;;;;;894.67;830.80;;;;;;;;;;4973612;28;20069;-59
2023/06/17 06:20:21;;;;;;;888.03;824.50;;;;;;;;;;4983722;28;20572;-59
2023/06/17 06:22:47;;;;;;;891.83;827.97;;;;;;;;;;4989955;28;20038;-61
2023/06/17 06:25:15;;;;;;;884.63;821.10;;;;;;;;;;4984331;28;20467;-61
2023/06/17 06:27:41;;;;;;;875.30;811.77;;;;;;;;;;4982849;28;20042;-61
2023/06/17 06:30:07;;;;;;;876.53;813.13;;;;;;;;;;4987666;28;20039;-61
2023/06/17 06:32:37;;;;;;;875.97;812.87;;;;;;;;;;5013498;28;20046;-61
2023/06/17 06:35:04;;;;;;;881.97;818.80;;;;;;;;;;5012876;28;20108;-61
2023/06/17 06:37:29;;;;;;;867.63;804.90;;;;;;;;;;4981275;28;20030;-61
2023/06/17 06:39:55;;;;;;;872.67;809.37;;;;;;;;;;5013011;28;20402;-61
2023/06/17 06:42:22;;;;;;;879.50;816.40;;;;;;;;;;4982190;28;20109;-61
2023/06/17 06:45:05;;;;;;;878.67;815.37;;;;;;;;;;4971298;28;20034;-61
2023/06/17 06:47:30;;;;;;;883.73;820.33;;;;;;;;;;4982177;28;20046;-61
2023/06/17 06:49:56;;;;;;;887.10;823.27;;;;;;;;;;4986867;28;20057;-61
2023/06/17 06:52:22;;;;;;;888.53;824.90;;;;;;;;;;4980312;28;20137;-60
2023/06/17 06:54:47;;;;;;;884.67;820.87;;;;;;;;;;4980538;28;20045;-62
2023/06/17 06:57:13;;;;;;;899.00;835.10;;;;;;;;;;5013418;28;20046;-60
2023/06/17 06:59:39;;;;;;;907.00;842.53;;;;;;;;;;4989240;28;20133;-61
2023/06/17 07:02:05;;;;;;;910.03;845.47;;;;;;;;;;4982656;28;20042;-61
2023/06/17 07:04:30;;;;;;;912.60;848.20;;;;;;;;;;5014588;28;20563;-61
2023/06/17 07:06:59;;;;;;;917.40;852.63;;;;;;;;;;4972436;28;20409;-61
2023/06/17 07:09:30;;;;;;;925.43;860.37;;;;;;;;;;4973704;28;20496;-61
2023/06/17 07:11:55;;;;;;;923.97;858.97;;;;;;;;;;4982306;28;20050;-61
2023/06/17 07:14:21;;;;;;;938.57;873.17;;;;;;;;;;5013528;28;20041;-61
2023/06/17 07:16:48;;;;;;;936.60;871.27;;;;;;;;;;5013048;28;20609;-61
2023/06/17 07:19:14;;;;;;;923.13;858.27;;;;;;;;;;4971575;28;20566;-60
2023/06/17 07:21:39;;;;;;;936.17;870.37;;;;;;;;;;4973146;28;20331;-60
2023/06/17 07:24:05;;;;;;;938.97;873.67;;;;;;;;;;4972676;28;20457;-60
2023/06/17 07:26:30;;;;;;;927.90;862.83;;;;;;;;;;4981995;28;20550;-59
2023/06/17 07:28:56;;;;;;;927.47;862.47;;;;;;;;;;5012769;28;20093;-60
2023/06/17 07:31:22;;;;;;;924.00;858.57;;;;;;;;;;4982113;28;20382;-60
2023/06/17 07:33:48;;;;;;;929.20;864.13;;;;;;;;;;5013868;28;20154;-60
2023/06/17 07:36:14;;;;;;;922.50;857.60;;;;;;;;;;4982412;28;20026;-60
2023/06/17 07:38:39;;;;;;;924.20;859.43;;;;;;;;;;4976172;28;20065;-60
2023/06/17 07:41:05;;;;;;;932.57;867.37;;;;;;;;;;4974115;28;20066;-60
2023/06/17 07:43:30;;;;;;;921.63;856.77;;;;;;;;;;4982020;28;20074;-60
2023/06/17 07:45:56;;;;;;;927.23;862.23;;;;;;;;;;4982197;28;20401;-60
2023/06/17 07:48:22;;;;;;;926.27;861.30;;;;;;;;;;4981299;28;20050;-59
2023/06/17 07:50:47;;;;;;;931.07;866.10;;;;;;;;;;4982298;28;20284;-60
2023/06/17 07:53:13;;;;;;;938.57;873.07;;;;;;;;;;4982741;28;20214;-60
2023/06/17 07:55:39;;;;;;;944.83;879.17;;;;;;;;;;4982763;28;20038;-66
2023/06/17 07:58:04;;;;;;;947.43;881.87;;;;;;;;;;4983987;28;20398;-74
2023/06/17 08:00:32;;;;;;;946.90;881.17;;;;;;;;;;4983770;28;20053;-68
2023/06/17 08:02:58;;;;;;;941.23;875.93;;;;;;;;;;4983835;28;20155;-66
2023/06/17 08:05:23;;;;;;;949.03;883.20;;;;;;;;;;4982558;28;20049;-65
2023/06/17 08:07:49;;;;;;;949.13;883.23;;;;;;;;;;4983313;28;20104;-64
2023/06/17 08:10:14;;;;;;;951.93;886.13;;;;;;;;;;4983379;28;20394;-64
2023/06/17 08:12:40;;;;;;;949.10;883.13;;;;;;;;;;4984172;28;20179;-63
2023/06/17 08:15:06;;;;;;;949.83;884.07;;;;;;;;;;4974002;28;20070;-64
2023/06/17 08:17:32;;;;;;;951.50;885.60;;;;;;;;;;4983227;28;20038;-61
2023/06/17 08:19:57;;;;;;;952.50;886.80;;;;;;;;;;4982345;28;20407;-69
2023/06/17 08:22:23;;;;;;;956.53;890.53;;;;;;;;;;4984394;28;20621;-67
2023/06/17 08:24:48;;;;;;;964.97;898.53;;;;;;;;;;4982834;28;20476;-66
2023/06/17 08:27:14;;;;;;;966.17;899.63;;;;;;;;;;4981388;28;20146;-67
2023/06/17 08:29:40;;;;;;;971.67;905.03;;;;;;;;;;5012050;28;20034;-67
2023/06/17 08:32:05;;;;;;;975.93;908.57;;;;;;;;;;4982006;28;20036;-68
2023/06/17 08:34:32;;;;;;;974.90;907.87;;;;;;;;;;4981557;28;20113;-60
2023/06/17 08:37:02;;;;;;;975.17;908.10;;;;;;;;;;4980567;28;20398;-60
2023/06/17 08:39:28;;;;;;;966.37;899.77;;;;;;;;;;4983019;28;20041;-61
2023/06/17 08:41:53;;;;;;;960.43;894.17;;;;;;;;;;4981089;28;20038;-59
2023/06/17 08:44:21;;;;;;;963.73;897.07;;;;;;;;;;4971708;28;20473;-60
2023/06/17 08:46:49;;;;;;;971.23;904.47;;;;;;;;;;4979798;28;20038;-60
2023/06/17 08:49:15;;;;;;;976.33;909.50;;;;;;;;;;4979509;28;20370;-60
2023/06/17 08:51:40;;;;;;;971.20;904.33;;;;;;;;;;4980721;28;20141;-59
2023/06/17 08:54:06;;;;;;;974.90;907.77;;;;;;;;;;4957931;28;20036;-60
2023/06/17 08:56:31;;;;;;;996.10;928.13;;;;;;;;;;4980053;28;20042;-61
2023/06/17 08:58:57;;;;;;;1002.10;933.57;;;;;;;;;;5011681;28;20049;-60
2023/06/17 09:01:23;;;;;;;1007.53;939.17;;;;;;;;;;4979944;28;20064;-59
2023/06/17 09:03:52;;;;;;;1008.17;939.60;;;;;;;;;;4978693;28;20517;-60
2023/06/17 09:06:20;;;;;;;1018.53;949.23;;;;;;;;;;4978488;28;20065;-59
2023/06/17 09:08:46;;;;;;;1021.33;952.10;;;;;;;;;;4978515;28;20089;-59
2023/06/17 09:11:11;;;;;;;1015.03;946.30;;;;;;;;;;4978834;28;20038;-59
2023/06/17 09:13:36;;;;;;;1017.77;948.87;;;;;;;;;;4978361;28;20066;-59
2023/06/17 09:16:02;;;;;;;1009.10;940.43;;;;;;;;;;4978088;28;20137;-60
2023/06/17 09:18:31;;;;;;;1004.47;936.00;;;;;;;;;;4979655;28;20038;-60
2023/06/17 09:20:57;;;;;;;985.83;918.43;;;;;;;;;;4978546;28;20056;-60
2023/06/17 09:23:23;;;;;;;1002.77;934.47;;;;;;;;;;4978548;28;20490;-60
2023/06/17 09:25:59;;;;;;;992.47;924.63;;;;;;;;;;4980633;28;20050;-59
2023/06/17 09:28:24;;;;;;;998.27;930.13;;;;;;;;;;4979807;28;20595;-59
2023/06/17 09:30:53;;;;;;;1011.33;942.70;;;;;;;;;;4980072;28;20046;-59
2023/06/17 09:33:20;;;;;;;1018.47;949.53;;;;;;;;;;4979567;28;20117;-59
2023/06/17 09:35:46;;;;;;;1019.67;950.67;;;;;;;;;;4980476;28;20045;-59
2023/06/17 09:38:15;;;;;;;1019.47;950.60;;;;;;;;;;4984596;28;20084;-59
2023/06/17 09:40:40;;;;;;;1023.83;954.93;;;;;;;;;;4985166;28;20027;-60
2023/06/17 09:43:06;;;;;;;1027.83;958.23;;;;;;;;;;4985191;28;20494;-60
2023/06/17 09:45:32;;;;;;;1024.07;954.80;;;;;;;;;;4981698;28;20034;-60
2023/06/17 09:47:58;;;;;;;1032.87;963.47;;;;;;;;;;4982982;28;20034;-60
2023/06/17 09:50:24;;;;;;;1013.83;945.07;;;;;;;;;;4986226;28;20609;-60
2023/06/17 09:52:55;;;;;;;1028.67;959.57;;;;;;;;;;4986599;28;20034;-60
2023/06/17 09:55:22;;;;;;;1014.13;945.53;;;;;;;;;;4985169;28;20461;-60
2023/06/17 09:57:53;;;;;;;1013.90;945.03;;;;;;;;;;4987106;28;20536;-59
2023/06/17 10:00:27;;;;;;;1004.57;936.17;;;;;;;;;;4986200;28;20038;-59
2023/06/17 10:02:53;;;;;;;;;;;;;;;;;;4986108;28;20442;-60
2023/06/17 10:05:20;;;;;;;1007.57;939.27;;;;;;;;;;4986040;28;19967;-60
2023/06/17 10:07:47;;;;;;;1006.03;937.83;;;;;;;;;;4985809;28;20062;-60
2023/06/17 10:10:14;;;;;;;1011.70;943.33;;;;;;;;;;4986052;28;20517;-60
2023/06/17 10:12:42;;;;;;;1012.53;944.33;;;;;;;;;;4986392;28;20547;-62
2023/06/17 10:15:09;;;;;;;1014.63;946.00;;;;;;;;;;4985729;28;20308;-60
2023/06/17 10:17:37;;;;;;;1028.93;959.47;;;;;;;;;;4974411;28;20157;-60
2023/06/17 10:20:05;;;;;;;1038.37;968.47;;;;;;;;;;4986221;28;20042;-60
2023/06/17 10:22:31;;;;;;;1051.87;980.97;;;;;;;;;;4985559;28;20637;-60
2023/06/17 10:24:56;;;;;;;1065.63;994.57;;;;;;;;;;4987263;28;20522;-60
2023/06/17 10:27:22;;;;;;;1054.67;984.37;;;;;;;;;;4985623;28;20042;-60
2023/06/17 10:29:48;;;;;;;1061.83;991.43;;;;;;;;;;4985386;28;20387;-60
2023/06/17 10:32:16;;;;;;;1045.47;976.00;;;;;;;;;;4986093;28;20040;-60
2023/06/17 10:35:02;;;;;;;1047.70;978.27;;;;;;;;;;4985604;28;20038;-61
2023/06/17 10:37:27;;;;;;;1039.73;970.63;;;;;;;;;;4985556;28;20125;-60
2023/06/17 10:39:53;;;;;;;1034.63;965.73;;;;;;;;;;4977562;28;20097;-60
2023/06/17 10:42:24;;;;;;;1034.80;966.40;;;;;;;;;;4985924;28;20974;-61
2023/06/17 10:44:50;;;;;;;1032.73;964.03;;;;;;;;;;4985098;28;20497;-60
2023/06/17 10:47:22;;;;;;;1022.23;954.17;;;;;;;;;;4982789;28;20126;-64
2023/06/17 10:49:48;;;;;;;1014.30;946.53;;;;;;;;;;4982011;28;20042;-60
2023/06/17 10:52:15;;;;;;;1007.20;939.73;;;;;;;;;;4982921;28;20052;-60
2023/06/17 10:54:45;;;;;;;997.93;930.93;;;;;;;;;;4982523;28;20101;-60
2023/06/17 10:57:11;;;;;;;998.87;931.67;;;;;;;;;;4981909;28;20061;-60
2023/06/17 10:59:36;;;;;;;1003.53;936.13;;;;;;;;;;4982328;28;20041;-60
2023/06/17 11:02:03;;;;;;;1007.50;939.70;;;;;;;;;;4982976;28;20068;-61
2023/06/17 11:04:31;;;;;;;1011.57;943.77;;;;;;;;;;4981385;28;20376;-60
2023/06/17 11:06:58;;;;;;;1017.67;949.80;;;;;;;;;;4983936;28;20105;-60
2023/06/17 11:09:24;;;;;;;1021.00;952.97;;;;;;;;;;4981792;28;20240;-60
2023/06/17 11:11:49;;;;;;;1036.37;967.50;;;;;;;;;;4982730;28;20042;-60
2023/06/17 11:14:17;;;;;;;1037.87;968.80;;;;;;;;;;4982852;28;20038;-61
2023/06/17 11:16:42;;;;;;;1035.77;966.73;;;;;;;;;;4981689;28;20650;-61
2023/06/17 11:19:08;;;;;;;1039.57;970.27;;;;;;;;;;4981845;28;20034;-62
2023/06/17 11:21:33;;;;;;;1033.93;965.03;;;;;;;;;;4983186;28;20084;-60
2023/06/17 11:23:59;;;;;;;1045.63;976.37;;;;;;;;;;4982147;28;20038;-60
2023/06/17 11:26:25;;;;;;;1049.33;979.77;;;;;;;;;;4981934;28;20034;-60
2023/06/17 11:28:51;;;;;;;1049.50;979.90;;;;;;;;;;4982897;28;20500;-59
2023/06/17 11:31:17;;;;;;;1050.03;980.53;;;;;;;;;;4980636;28;20488;-60
2023/06/17 11:33:43;;;;;;;1053.43;983.80;;;;;;;;;;4982462;28;20209;-59
2023/06/17 11:36:13;;;;;;;1050.57;980.93;;;;;;;;;;4981698;28;20034;-60
2023/06/17 11:38:39;;;;;;;1059.37;989.23;;;;;;;;;;4981987;28;20438;-60
2023/06/17 11:41:05;;;;;;;1054.47;984.63;;;;;;;;;;4982865;28;20042;-60
2023/06/17 11:43:31;;;;;;;1051.43;981.63;;;;;;;;;;4982434;28;20088;-59
2023/06/17 11:45:57;;;;;;;1055.27;985.37;;;;;;;;;;4982833;28;20037;-60
2023/06/17 11:48:29;;;;;;;1064.10;993.90;;;;;;;;;;4982886;28;20800;-60
2023/06/17 11:50:55;;;;;;;1060.40;990.00;;;;;;;;;;4981591;28;20764;-60
2023/06/17 11:53:33;;;;;;;1060.00;990.20;;;;;;;;;;4981197;28;20030;-61
2023/06/17 11:56:05;;;;;;;1064.50;993.40;;;;;;;;;;4971662;28;20034;-60
2023/06/17 11:58:31;;;;;;;1067.10;995.87;;;;;;;;;;4981289;28;20149;-60
2023/06/17 12:01:00;;;;;;;1076.00;999.90;;;;;;;;;;4981496;28;20042;-59
2023/06/17 12:03:27;;;;;;;1078.07;999.90;;;;;;;;;;4980468;28;20584;-59
2023/06/17 12:05:52;;;;;;;1072.87;998.93;;;;;;;;;;4981310;28;20057;-60
2023/06/17 12:08:18;;;;;;;1072.57;998.87;;;;;;;;;;4980862;28;20034;-60
2023/06/17 12:10:43;;;;;;;1070.37;998.13;;;;;;;;;;4981282;28;20092;-61
2023/06/17 12:13:12;;;;;;;1065.40;995.03;;;;;;;;;;4981005;28;20085;-60
2023/06/17 12:15:38;;;;;;;1068.87;997.23;;;;;;;;;;4980750;28;20109;-60
2023/06/17 12:18:10;;;;;;;1068.07;996.97;;;;;;;;;;4982257;28;20504;-60
2023/06/17 12:20:39;;;;;;;1072.33;998.73;;;;;;;;;;4969039;28;20042;-60
2023/06/17 12:23:06;;;;;;;1065.50;995.27;;;;;;;;;;4979391;28;20039;-60
2023/06/17 12:25:33;;;;;;;1066.93;996.23;;;;;;;;;;4980140;28;20034;-59
2023/06/17 12:27:58;;;;;;;979.77;917.63;;;;;;;;;;4971267;28;20434;-60
2023/06/17 12:30:24;;;;;;;970.37;908.07;;;;;;;;;;4980852;28;20188;-59
2023/06/17 12:32:50;;;;;;;1018.93;955.43;;;;;;;;;;5011838;28;20314;-60
2023/06/17 12:35:16;;;;;;;1019.77;956.07;;;;;;;;;;4980684;28;20156;-60
2023/06/17 12:37:42;;;;;;;1015.80;951.23;;;;;;;;;;4979812;28;20042;-63
2023/06/17 12:40:08;;;;;;;920.83;859.70;;;;;;;;;;4980997;28;20026;-59
2023/06/17 12:42:34;;;;;;;969.17;906.73;;;;;;;;;;4980893;28;20049;-60
2023/06/17 12:45:00;;;;;;;911.50;850.50;;;;;;;;;;4979650;28;20061;-60
2023/06/17 12:47:26;;;;;;;885.83;825.10;;;;;;;;;;4996189;28;20125;-59
2023/06/17 12:49:52;;;;;;;970.90;908.10;;;;;;;;;;4980353;28;20136;-60
2023/06/17 12:52:17;;;;;;;896.43;835.50;;;;;;;;;;4980724;28;20482;-59
2023/06/17 12:54:43;;;;;;;892.00;831.57;;;;;;;;;;4980958;28;20065;-59
2023/06/17 12:57:09;;;;;;;952.90;890.87;;;;;;;;;;4980024;28;20037;-60
2023/06/17 12:59:34;;;;;;;975.17;912.33;;;;;;;;;;4979570;28;20734;-59
2023/06/17 13:02:00;;;;;;;993.23;929.27;;;;;;;;;;4980590;28;20038;-60
2023/06/17 13:04:26;;;;;;;990.03;925.33;;;;;;;;;;4979009;28;20105;-60
2023/06/17 13:06:52;;;;;;;939.90;877.90;;;;;;;;;;4980480;28;20060;-60
2023/06/17 13:09:18;;;;;;;945.00;882.83;;;;;;;;;;4980053;28;20065;-60
2023/06/17 13:11:43;;;;;;;954.00;891.17;;;;;;;;;;4978786;28;20026;-59
2023/06/17 13:14:09;;;;;;;967.50;904.00;;;;;;;;;;4979517;28;20031;-59
2023/06/17 13:16:35;;;;;;;982.07;917.43;;;;;;;;;;4979964;28;20085;-59
2023/06/17 13:19:01;;;;;;;993.57;928.40;;;;;;;;;;4979670;28;20096;-59
2023/06/17 13:21:26;;;;;;;993.53;928.53;;;;;;;;;;4980431;28;20080;-59
2023/06/17 13:23:52;;;;;;;998.23;932.93;;;;;;;;;;4978950;28;20121;-59
2023/06/17 13:26:24;;;;;;;996.30;930.10;;;;;;;;;;4980821;28;20044;-59
2023/06/17 13:28:50;;;;;;;990.50;924.90;;;;;;;;;;4980622;28;20446;-60
2023/06/17 13:31:15;;;;;;;987.20;922.27;;;;;;;;;;4980610;28;20046;-59
2023/06/17 13:33:41;;;;;;;1002.17;936.33;;;;;;;;;;4978798;28;20035;-59
2023/06/17 13:36:06;;;;;;;1004.43;938.30;;;;;;;;;;4978373;28;20061;-59
2023/06/17 13:38:32;;;;;;;1004.60;937.63;;;;;;;;;;4979463;28;20042;-59
2023/06/17 13:40:58;;;;;;;998.47;932.37;;;;;;;;;;4979310;28;20297;-62
2023/06/17 13:43:23;;;;;;;1000.50;934.27;;;;;;;;;;4967377;28;20033;-60
2023/06/17 13:45:48;;;;;;;992.40;926.43;;;;;;;;;;4979575;28;20320;-60